LAN212 SCIE-SCEL
Flight info
| Callsign | LAN212 |
|---|---|
| Flight time | 0h 42m |
| Altitude | 26000 |
| Route | LODOS4M LODOS UQ808 EROLO EROLO4B |
| Aircraft | A320/M-SDE3FGHIRWY/LB1 |
Departure
| Time | 2026-05-08 11:46 |
|---|---|
| Airport | Carriel Sur International Airport (SCIE) |
Arrival
| Time | 2026-05-08 12:28 |
|---|---|
| Airport | Comodoro Arturo Merino Benítez International Airport (SCEL) |
| Time | Latitude | Longitude | Altitude | Speed | Heading |
|---|---|---|---|---|---|
| 2026-05-08 11:25 | -36.77624 | -73.06023 | 30 ft | 0 kts | 171° |
| 2026-05-08 11:37 | -36.77607 | -73.06027 | 30 ft | 3 kts | 171° |
| 2026-05-08 11:37 | -36.77581 | -73.06029 | 30 ft | 4 kts | 187° |
| 2026-05-08 11:37 | -36.77555 | -73.06020 | 30 ft | 4 kts | 213° |
| 2026-05-08 11:38 | -36.77544 | -73.06010 | 30 ft | 1 kts | 221° |
| 2026-05-08 11:38 | -36.77543 | -73.06009 | 30 ft | 0 kts | 221° |
| 2026-05-08 11:41 | -36.77538 | -73.06055 | 30 ft | 11 kts | 289° |
| 2026-05-08 11:41 | -36.77493 | -73.06178 | 30 ft | 17 kts | 278° |
| 2026-05-08 11:41 | -36.77523 | -73.06233 | 30 ft | 7 kts | 196° |
| 2026-05-08 11:42 | -36.77593 | -73.06271 | 30 ft | 14 kts | 207° |
| 2026-05-08 11:42 | -36.77673 | -73.06318 | 30 ft | 12 kts | 201° |
| 2026-05-08 11:42 | -36.77742 | -73.06354 | 30 ft | 10 kts | 205° |
| 2026-05-08 11:42 | -36.77798 | -73.06389 | 30 ft | 8 kts | 208° |
| 2026-05-08 11:43 | -36.77846 | -73.06416 | 30 ft | 8 kts | 202° |
| 2026-05-08 11:43 | -36.77915 | -73.06452 | 30 ft | 13 kts | 203° |
| 2026-05-08 11:43 | -36.78010 | -73.06508 | 30 ft | 17 kts | 206° |
| 2026-05-08 11:43 | -36.78131 | -73.06583 | 30 ft | 22 kts | 207° |
| 2026-05-08 11:44 | -36.78245 | -73.06680 | 30 ft | 17 kts | 254° |
| 2026-05-08 11:44 | -36.78211 | -73.06803 | 33 ft | 12 kts | 296° |
| 2026-05-08 11:44 | -36.78164 | -73.06842 | 34 ft | 8 kts | 10° |
| 2026-05-08 11:44 | -36.78133 | -73.06826 | 34 ft | 0 kts | 24° |
| 2026-05-08 11:45 | -36.78077 | -73.06794 | 33 ft | 38 kts | 24° |
| 2026-05-08 11:45 | -36.77618 | -73.06528 | 33 ft | 103 kts | 25° |
| 2026-05-08 11:45 | -36.76807 | -73.06068 | 127 ft | 141 kts | 23° |
| 2026-05-08 11:46 | -36.75899 | -73.05570 | 634 ft | 145 kts | 24° |
| 2026-05-08 11:46 | -36.74977 | -73.05047 | 1261 ft | 147 kts | 21° |
| 2026-05-08 11:46 | -36.73982 | -73.04487 | 1620 ft | 167 kts | 21° |
| 2026-05-08 11:46 | -36.72852 | -73.03853 | 1913 ft | 190 kts | 20° |
| 2026-05-08 11:47 | -36.71570 | -73.03135 | 2215 ft | 214 kts | 20° |
| 2026-05-08 11:47 | -36.70165 | -73.02237 | 2578 ft | 241 kts | 31° |
| 2026-05-08 11:47 | -36.68838 | -73.00822 | 3106 ft | 264 kts | 43° |
| 2026-05-08 11:47 | -36.67599 | -72.99074 | 3918 ft | 273 kts | 49° |
| 2026-05-08 11:48 | -36.66387 | -72.97214 | 4838 ft | 279 kts | 50° |
| 2026-05-08 11:48 | -36.65150 | -72.95310 | 5740 ft | 284 kts | 50° |
| 2026-05-08 11:48 | -36.63880 | -72.93403 | 6655 ft | 289 kts | 49° |
| 2026-05-08 11:48 | -36.62575 | -72.91497 | 7442 ft | 296 kts | 50° |
| 2026-05-08 11:49 | -36.61202 | -72.89530 | 8193 ft | 304 kts | 50° |
| 2026-05-08 11:49 | -36.59782 | -72.87522 | 8944 ft | 312 kts | 51° |
| 2026-05-08 11:49 | -36.58319 | -72.85470 | 9678 ft | 320 kts | 52° |
| 2026-05-08 11:49 | -36.56812 | -72.83366 | 10227 ft | 336 kts | 52° |
| 2026-05-08 11:50 | -36.55203 | -72.81112 | 10487 ft | 359 kts | 52° |
| 2026-05-08 11:50 | -36.53510 | -72.78742 | 10935 ft | 373 kts | 52° |
| 2026-05-08 11:50 | -36.51756 | -72.76297 | 11501 ft | 382 kts | 52° |
| 2026-05-08 11:50 | -36.49969 | -72.73816 | 12175 ft | 388 kts | 52° |
| 2026-05-08 11:51 | -36.48115 | -72.71341 | 12831 ft | 395 kts | 50° |
| 2026-05-08 11:51 | -36.46179 | -72.68926 | 13473 ft | 402 kts | 49° |
| 2026-05-08 11:51 | -36.44148 | -72.66487 | 14121 ft | 408 kts | 49° |
| 2026-05-08 11:51 | -36.42074 | -72.64033 | 14693 ft | 414 kts | 48° |
| 2026-05-08 11:52 | -36.39977 | -72.61545 | 15255 ft | 420 kts | 48° |
| 2026-05-08 11:52 | -36.37855 | -72.59002 | 15821 ft | 425 kts | 49° |
| 2026-05-08 11:52 | -36.35749 | -72.56452 | 16363 ft | 430 kts | 49° |
| 2026-05-08 11:52 | -36.33591 | -72.53822 | 16920 ft | 436 kts | 49° |
| 2026-05-08 11:53 | -36.31414 | -72.51161 | 17493 ft | 442 kts | 49° |
| 2026-05-08 11:53 | -36.29206 | -72.48466 | 18059 ft | 447 kts | 49° |
| 2026-05-08 11:53 | -36.26965 | -72.45738 | 18608 ft | 453 kts | 49° |
| 2026-05-08 11:53 | -36.24725 | -72.43026 | 19118 ft | 457 kts | 49° |
| 2026-05-08 11:54 | -36.22433 | -72.40256 | 19651 ft | 462 kts | 49° |
| 2026-05-08 11:54 | -36.20118 | -72.37457 | 20214 ft | 466 kts | 49° |
| 2026-05-08 11:54 | -36.17782 | -72.34634 | 20771 ft | 470 kts | 49° |
| 2026-05-08 11:54 | -36.15425 | -72.31789 | 21284 ft | 474 kts | 49° |
| 2026-05-08 11:55 | -36.13083 | -72.28961 | 21825 ft | 478 kts | 49° |
| 2026-05-08 11:55 | -36.10680 | -72.26062 | 22346 ft | 482 kts | 49° |
| 2026-05-08 11:55 | -36.08263 | -72.23145 | 22876 ft | 486 kts | 49° |
| 2026-05-08 11:55 | -36.05757 | -72.20293 | 23380 ft | 494 kts | 43° |
| 2026-05-08 11:56 | -36.02970 | -72.17838 | 23829 ft | 502 kts | 33° |
| 2026-05-08 11:56 | -35.99852 | -72.15817 | 24229 ft | 507 kts | 25° |
| 2026-05-08 11:56 | -35.96609 | -72.13996 | 24614 ft | 512 kts | 25° |
| 2026-05-08 11:56 | -35.93357 | -72.12159 | 24989 ft | 516 kts | 26° |
| 2026-05-08 11:57 | -35.90080 | -72.10302 | 25360 ft | 520 kts | 26° |
| 2026-05-08 11:57 | -35.86813 | -72.08451 | 25714 ft | 524 kts | 26° |
| 2026-05-08 11:57 | -35.83481 | -72.06567 | 26072 ft | 528 kts | 26° |
| 2026-05-08 11:57 | -35.80128 | -72.04674 | 26213 ft | 529 kts | 26° |
| 2026-05-08 11:58 | -35.76803 | -72.02800 | 26240 ft | 523 kts | 26° |
| 2026-05-08 11:58 | -35.73491 | -72.00936 | 26239 ft | 521 kts | 26° |
| 2026-05-08 11:58 | -35.70221 | -71.99094 | 26244 ft | 520 kts | 26° |
| 2026-05-08 11:59 | -35.63624 | -71.95385 | 26253 ft | 520 kts | 26° |
| 2026-05-08 11:59 | -35.60358 | -71.93553 | 26253 ft | 520 kts | 26° |
| 2026-05-08 11:59 | -35.57058 | -71.91703 | 26239 ft | 520 kts | 26° |
| 2026-05-08 11:59 | -35.53768 | -71.89860 | 26258 ft | 520 kts | 26° |
| 2026-05-08 12:00 | -35.50467 | -71.88012 | 26246 ft | 520 kts | 26° |
| 2026-05-08 12:00 | -35.47177 | -71.86171 | 26249 ft | 520 kts | 26° |
| 2026-05-08 12:00 | -35.43882 | -71.84333 | 26256 ft | 520 kts | 26° |
| 2026-05-08 12:00 | -35.40582 | -71.82493 | 26261 ft | 520 kts | 26° |
| 2026-05-08 12:01 | -35.37279 | -71.80652 | 26260 ft | 520 kts | 26° |
| 2026-05-08 12:01 | -35.34025 | -71.78840 | 26266 ft | 520 kts | 25° |
| 2026-05-08 12:01 | -35.30715 | -71.76999 | 26267 ft | 520 kts | 25° |
| 2026-05-08 12:01 | -35.27414 | -71.75161 | 26269 ft | 520 kts | 26° |
| 2026-05-08 12:02 | -35.24118 | -71.73322 | 26267 ft | 520 kts | 26° |
| 2026-05-08 12:02 | -35.20821 | -71.71486 | 26266 ft | 520 kts | 25° |
| 2026-05-08 12:02 | -35.17567 | -71.69678 | 26269 ft | 520 kts | 25° |
| 2026-05-08 12:02 | -35.14262 | -71.67842 | 26265 ft | 519 kts | 25° |
| 2026-05-08 12:03 | -35.10961 | -71.66012 | 26260 ft | 519 kts | 25° |
| 2026-05-08 12:03 | -35.07661 | -71.64189 | 26264 ft | 520 kts | 25° |
| 2026-05-08 12:03 | -35.04363 | -71.62369 | 26264 ft | 520 kts | 25° |
| 2026-05-08 12:03 | -35.01065 | -71.60550 | 26269 ft | 519 kts | 25° |
| 2026-05-08 12:04 | -34.97806 | -71.58758 | 26268 ft | 519 kts | 25° |
| 2026-05-08 12:04 | -34.94514 | -71.56947 | 26273 ft | 519 kts | 25° |
| 2026-05-08 12:04 | -34.91220 | -71.55133 | 26269 ft | 519 kts | 25° |
| 2026-05-08 12:04 | -34.87928 | -71.53319 | 26271 ft | 519 kts | 25° |
| 2026-05-08 12:05 | -34.84639 | -71.51506 | 26261 ft | 519 kts | 25° |
| 2026-05-08 12:05 | -34.81340 | -71.49693 | 26268 ft | 519 kts | 25° |
| 2026-05-08 12:05 | -34.78040 | -71.47883 | 26266 ft | 518 kts | 25° |
| 2026-05-08 12:05 | -34.74742 | -71.46075 | 26268 ft | 518 kts | 25° |
| 2026-05-08 12:06 | -34.71491 | -71.44299 | 26267 ft | 517 kts | 25° |
| 2026-05-08 12:06 | -34.68202 | -71.42503 | 26271 ft | 518 kts | 24° |
| 2026-05-08 12:06 | -34.64907 | -71.40707 | 26269 ft | 517 kts | 24° |
| 2026-05-08 12:06 | -34.61600 | -71.38963 | 26268 ft | 517 kts | 23° |
| 2026-05-08 12:07 | -34.58310 | -71.37311 | 26270 ft | 517 kts | 22° |
| 2026-05-08 12:07 | -34.54958 | -71.35690 | 26269 ft | 517 kts | 21° |
| 2026-05-08 12:07 | -34.51610 | -71.34094 | 26268 ft | 516 kts | 21° |
| 2026-05-08 12:07 | -34.48257 | -71.32493 | 26264 ft | 516 kts | 21° |
| 2026-05-08 12:08 | -34.44910 | -71.30880 | 26266 ft | 516 kts | 21° |
| 2026-05-08 12:08 | -34.41613 | -71.29274 | 26262 ft | 516 kts | 21° |
| 2026-05-08 12:08 | -34.38276 | -71.27636 | 26261 ft | 515 kts | 22° |
| 2026-05-08 12:08 | -34.34952 | -71.25997 | 26260 ft | 515 kts | 22° |
| 2026-05-08 12:09 | -34.31624 | -71.24356 | 26256 ft | 515 kts | 21° |
| 2026-05-08 12:09 | -34.28298 | -71.22718 | 26253 ft | 515 kts | 21° |
| 2026-05-08 12:09 | -34.24974 | -71.21086 | 26250 ft | 515 kts | 21° |
| 2026-05-08 12:09 | -34.21665 | -71.19461 | 26126 ft | 509 kts | 22° |
| 2026-05-08 12:10 | -34.18447 | -71.17883 | 25883 ft | 501 kts | 21° |
| 2026-05-08 12:10 | -34.15227 | -71.16310 | 25630 ft | 496 kts | 21° |
| 2026-05-08 12:10 | -34.12037 | -71.14759 | 25381 ft | 493 kts | 21° |
| 2026-05-08 12:10 | -34.08853 | -71.13213 | 25156 ft | 490 kts | 21° |
| 2026-05-08 12:11 | -34.05686 | -71.11677 | 24662 ft | 490 kts | 21° |
| 2026-05-08 12:11 | -34.02551 | -71.10153 | 24131 ft | 491 kts | 21° |
| 2026-05-08 12:11 | -33.99367 | -71.08605 | 23512 ft | 494 kts | 21° |
| 2026-05-08 12:11 | -33.96177 | -71.07054 | 22954 ft | 492 kts | 21° |
| 2026-05-08 12:12 | -33.93016 | -71.05522 | 22567 ft | 486 kts | 21° |
| 2026-05-08 12:12 | -33.89890 | -71.04012 | 22291 ft | 476 kts | 21° |
| 2026-05-08 12:12 | -33.86852 | -71.02545 | 21643 ft | 465 kts | 21° |
| 2026-05-08 12:12 | -33.83872 | -71.01105 | 20843 ft | 459 kts | 21° |
| 2026-05-08 12:13 | -33.80913 | -70.99676 | 20097 ft | 453 kts | 21° |
| 2026-05-08 12:13 | -33.78038 | -70.98288 | 19342 ft | 448 kts | 21° |
| 2026-05-08 12:13 | -33.75165 | -70.96900 | 18545 ft | 441 kts | 22° |
| 2026-05-08 12:13 | -33.72328 | -70.95529 | 17686 ft | 436 kts | 21° |
| 2026-05-08 12:14 | -33.69532 | -70.94178 | 16940 ft | 428 kts | 21° |
| 2026-05-08 12:14 | -33.66780 | -70.92850 | 16222 ft | 420 kts | 21° |
| 2026-05-08 12:14 | -33.64099 | -70.91559 | 15530 ft | 411 kts | 21° |
| 2026-05-08 12:14 | -33.61471 | -70.90295 | 14855 ft | 403 kts | 21° |
| 2026-05-08 12:15 | -33.58923 | -70.89068 | 14197 ft | 395 kts | 21° |
| 2026-05-08 12:15 | -33.56432 | -70.87765 | 13497 ft | 385 kts | 28° |
| 2026-05-08 12:15 | -33.54164 | -70.86145 | 12859 ft | 373 kts | 32° |
| 2026-05-08 12:15 | -33.51984 | -70.84535 | 12253 ft | 361 kts | 32° |
| 2026-05-08 12:16 | -33.49873 | -70.82983 | 11655 ft | 349 kts | 31° |
| 2026-05-08 12:16 | -33.47915 | -70.81548 | 11108 ft | 337 kts | 31° |
| 2026-05-08 12:16 | -33.45946 | -70.80105 | 10545 ft | 325 kts | 30° |
| 2026-05-08 12:16 | -33.44075 | -70.78729 | 9991 ft | 314 kts | 30° |
| 2026-05-08 12:17 | -33.42235 | -70.77375 | 9285 ft | 307 kts | 30° |
| 2026-05-08 12:17 | -33.40466 | -70.76075 | 9034 ft | 287 kts | 30° |
| 2026-05-08 12:17 | -33.38824 | -70.74872 | 8901 ft | 267 kts | 30° |
| 2026-05-08 12:17 | -33.37292 | -70.73752 | 8714 ft | 251 kts | 30° |
| 2026-05-08 12:18 | -33.35816 | -70.72675 | 8412 ft | 247 kts | 30° |
| 2026-05-08 12:18 | -33.34355 | -70.71609 | 8274 ft | 245 kts | 30° |
| 2026-05-08 12:18 | -33.32921 | -70.70565 | 8147 ft | 237 kts | 28° |
| 2026-05-08 12:18 | -33.31420 | -70.69774 | 8035 ft | 234 kts | 16° |
| 2026-05-08 12:19 | -33.29837 | -70.69376 | 7890 ft | 233 kts | 5° |
| 2026-05-08 12:19 | -33.28236 | -70.69374 | 7773 ft | 232 kts | 353° |
| 2026-05-08 12:19 | -33.26625 | -70.69578 | 7652 ft | 233 kts | 354° |
| 2026-05-08 12:19 | -33.25008 | -70.69777 | 7526 ft | 233 kts | 354° |
| 2026-05-08 12:20 | -33.23935 | -70.69907 | 7444 ft | 233 kts | 354° |
| 2026-05-08 12:20 | -33.22315 | -70.70104 | 7321 ft | 234 kts | 354° |
| 2026-05-08 12:20 | -33.20174 | -70.70363 | 7056 ft | 232 kts | 354° |
| 2026-05-08 12:20 | -33.19082 | -70.70495 | 6849 ft | 233 kts | 354° |
| 2026-05-08 12:21 | -33.17472 | -70.70704 | 6541 ft | 233 kts | 353° |
| 2026-05-08 12:21 | -33.15858 | -70.70931 | 6252 ft | 233 kts | 353° |
| 2026-05-08 12:21 | -33.14318 | -70.71392 | 5967 ft | 232 kts | 330° |
| 2026-05-08 12:21 | -33.13179 | -70.72729 | 5652 ft | 229 kts | 296° |
| 2026-05-08 12:22 | -33.12793 | -70.74516 | 5342 ft | 227 kts | 274° |
| 2026-05-08 12:22 | -33.12714 | -70.76368 | 5201 ft | 219 kts | 269° |
| 2026-05-08 12:22 | -33.13042 | -70.78065 | 5088 ft | 208 kts | 236° |
| 2026-05-08 12:22 | -33.14041 | -70.79264 | 5001 ft | 203 kts | 215° |
| 2026-05-08 12:23 | -33.15246 | -70.80123 | 5004 ft | 202 kts | 192° |
| 2026-05-08 12:23 | -33.16615 | -70.79998 | 5014 ft | 201 kts | 162° |
| 2026-05-08 12:23 | -33.17988 | -70.79689 | 5013 ft | 201 kts | 176° |
| 2026-05-08 12:23 | -33.19393 | -70.79630 | 5010 ft | 202 kts | 178° |
| 2026-05-08 12:24 | -33.20799 | -70.79569 | 4858 ft | 201 kts | 177° |
| 2026-05-08 12:24 | -33.22178 | -70.79498 | 4659 ft | 195 kts | 177° |
| 2026-05-08 12:24 | -33.23521 | -70.79427 | 4379 ft | 192 kts | 177° |
| 2026-05-08 12:24 | -33.24843 | -70.79356 | 4115 ft | 189 kts | 177° |
| 2026-05-08 12:25 | -33.26148 | -70.79286 | 3865 ft | 186 kts | 177° |
| 2026-05-08 12:25 | -33.27427 | -70.79218 | 3613 ft | 180 kts | 177° |
| 2026-05-08 12:25 | -33.28646 | -70.79152 | 3369 ft | 171 kts | 177° |
| 2026-05-08 12:25 | -33.29819 | -70.79089 | 3123 ft | 167 kts | 177° |
| 2026-05-08 12:26 | -33.30986 | -70.79027 | 2896 ft | 173 kts | 177° |
| 2026-05-08 12:26 | -33.32179 | -70.78963 | 2651 ft | 170 kts | 177° |
| 2026-05-08 12:26 | -33.33299 | -70.78903 | 2430 ft | 153 kts | 177° |
| 2026-05-08 12:26 | -33.34331 | -70.78847 | 2231 ft | 146 kts | 177° |
| 2026-05-08 12:27 | -33.35338 | -70.78793 | 2041 ft | 144 kts | 177° |
| 2026-05-08 12:27 | -33.36333 | -70.78740 | 1855 ft | 143 kts | 177° |
| 2026-05-08 12:27 | -33.37324 | -70.78686 | 1669 ft | 143 kts | 178° |
| 2026-05-08 12:27 | -33.38298 | -70.78634 | 1565 ft | 132 kts | 177° |
| 2026-05-08 12:28 | -33.39076 | -70.78592 | 1564 ft | 88 kts | 177° |
| 2026-05-08 12:28 | -33.39421 | -70.78574 | 1564 ft | 31 kts | 179° |
| 2026-05-08 12:28 | -33.39591 | -70.78638 | 1564 ft | 12 kts | 205° |
| 2026-05-08 12:28 | -33.39666 | -70.78681 | 1564 ft | 13 kts | 206° |
| 2026-05-08 12:29 | -33.39738 | -70.78726 | 1565 ft | 10 kts | 222° |
| 2026-05-08 12:29 | -33.39754 | -70.78819 | 1564 ft | 13 kts | 265° |
| 2026-05-08 12:29 | -33.39780 | -70.78919 | 1564 ft | 12 kts | 234° |
| 2026-05-08 12:29 | -33.39793 | -70.78985 | 1564 ft | 0 kts | 269° |
| 2026-05-08 12:30 | -33.39793 | -70.78986 | 1564 ft | 0 kts | 269° |
| 2026-05-08 12:30 | -33.39791 | -70.78997 | 1564 ft | 2 kts | 292° |
| 2026-05-08 12:30 | -33.39778 | -70.79005 | 1564 ft | 3 kts | 344° |
| 2026-05-08 12:31 | -33.39747 | -70.79009 | 1564 ft | 6 kts | 359° |
| 2026-05-08 12:31 | -33.39716 | -70.79011 | 1564 ft | 4 kts | 356° |
| 2026-05-08 12:31 | -33.39712 | -70.79011 | 1564 ft | 0 kts | 356° |